sensor_id;sensor_type;location;lat;lon;timestamp;P1;durP1;ratioP1;P2;durP2;ratioP2
77726;SDS011;68312;53.502;10.030;2023-04-22T00:02:03;7.35;;;3.20;;
77726;SDS011;68312;53.502;10.030;2023-04-22T00:04:28;7.63;;;3.22;;
77726;SDS011;68312;53.502;10.030;2023-04-22T00:06:54;7.13;;;3.03;;
77726;SDS011;68312;53.502;10.030;2023-04-22T00:09:20;5.78;;;3.35;;
77726;SDS011;68312;53.502;10.030;2023-04-22T00:11:46;5.88;;;2.80;;
77726;SDS011;68312;53.502;10.030;2023-04-22T00:14:11;5.85;;;3.25;;
77726;SDS011;68312;53.502;10.030;2023-04-22T00:16:37;4.80;;;2.90;;
77726;SDS011;68312;53.502;10.030;2023-04-22T00:19:03;5.60;;;3.38;;
77726;SDS011;68312;53.502;10.030;2023-04-22T00:21:29;6.53;;;3.22;;
77726;SDS011;68312;53.502;10.030;2023-04-22T00:23:56;4.32;;;3.00;;
77726;SDS011;68312;53.502;10.030;2023-04-22T00:26:23;4.75;;;2.92;;
77726;SDS011;68312;53.502;10.030;2023-04-22T00:28:48;10.85;;;3.13;;
77726;SDS011;68312;53.502;10.030;2023-04-22T00:31:14;6.22;;;2.97;;
77726;SDS011;68312;53.502;10.030;2023-04-22T00:33:40;5.50;;;2.97;;
77726;SDS011;68312;53.502;10.030;2023-04-22T00:36:06;5.57;;;3.00;;
77726;SDS011;68312;53.502;10.030;2023-04-22T00:38:31;4.95;;;2.88;;
77726;SDS011;68312;53.502;10.030;2023-04-22T00:40:57;5.60;;;3.65;;
77726;SDS011;68312;53.502;10.030;2023-04-22T00:43:23;6.75;;;3.20;;
77726;SDS011;68312;53.502;10.030;2023-04-22T00:45:49;6.28;;;3.03;;
77726;SDS011;68312;53.502;10.030;2023-04-22T00:48:15;6.40;;;3.22;;
77726;SDS011;68312;53.502;10.030;2023-04-22T00:50:43;5.95;;;2.90;;
77726;SDS011;68312;53.502;10.030;2023-04-22T00:53:09;5.70;;;3.20;;
77726;SDS011;68312;53.502;10.030;2023-04-22T00:55:35;5.85;;;2.85;;
77726;SDS011;68312;53.502;10.030;2023-04-22T00:58:02;5.70;;;3.38;;
77726;SDS011;68312;53.502;10.030;2023-04-22T01:00:29;6.47;;;3.17;;
77726;SDS011;68312;53.502;10.030;2023-04-22T01:02:55;6.28;;;3.45;;
77726;SDS011;68312;53.502;10.030;2023-04-22T01:05:22;7.20;;;3.70;;
77726;SDS011;68312;53.502;10.030;2023-04-22T01:07:49;7.28;;;3.10;;
77726;SDS011;68312;53.502;10.030;2023-04-22T01:10:15;6.60;;;3.15;;
77726;SDS011;68312;53.502;10.030;2023-04-22T01:12:42;7.30;;;3.55;;
77726;SDS011;68312;53.502;10.030;2023-04-22T01:15:08;8.73;;;3.67;;
77726;SDS011;68312;53.502;10.030;2023-04-22T01:17:35;5.32;;;3.40;;
77726;SDS011;68312;53.502;10.030;2023-04-22T01:20:04;5.13;;;3.10;;
77726;SDS011;68312;53.502;10.030;2023-04-22T01:22:34;5.70;;;3.55;;
77726;SDS011;68312;53.502;10.030;2023-04-22T01:25:06;6.57;;;3.40;;
77726;SDS011;68312;53.502;10.030;2023-04-22T01:27:35;8.77;;;3.70;;
77726;SDS011;68312;53.502;10.030;2023-04-22T01:30:02;7.57;;;3.17;;
77726;SDS011;68312;53.502;10.030;2023-04-22T01:32:30;8.27;;;3.85;;
77726;SDS011;68312;53.502;10.030;2023-04-22T01:38:57;5.85;;;3.53;;
77726;SDS011;68312;53.502;10.030;2023-04-22T01:41:24;7.70;;;3.45;;
77726;SDS011;68312;53.502;10.030;2023-04-22T01:43:53;6.43;;;3.65;;
77726;SDS011;68312;53.502;10.030;2023-04-22T01:46:24;7.88;;;3.53;;
77726;SDS011;68312;53.502;10.030;2023-04-22T01:48:49;5.57;;;3.50;;
77726;SDS011;68312;53.502;10.030;2023-04-22T01:51:16;6.18;;;3.60;;
77726;SDS011;68312;53.502;10.030;2023-04-22T01:53:47;6.10;;;3.70;;
77726;SDS011;68312;53.502;10.030;2023-04-22T01:56:14;9.13;;;4.20;;
77726;SDS011;68312;53.502;10.030;2023-04-22T01:58:40;5.68;;;3.78;;
77726;SDS011;68312;53.502;10.030;2023-04-22T02:01:07;5.45;;;3.80;;
77726;SDS011;68312;53.502;10.030;2023-04-22T02:03:35;5.88;;;3.80;;
77726;SDS011;68312;53.502;10.030;2023-04-22T02:06:02;6.35;;;3.55;;
77726;SDS011;68312;53.502;10.030;2023-04-22T02:08:28;7.32;;;3.92;;
77726;SDS011;68312;53.502;10.030;2023-04-22T02:10:54;7.22;;;3.88;;
77726;SDS011;68312;53.502;10.030;2023-04-22T02:13:20;5.68;;;3.90;;
77726;SDS011;68312;53.502;10.030;2023-04-22T02:15:46;7.07;;;3.50;;
77726;SDS011;68312;53.502;10.030;2023-04-22T02:18:12;7.18;;;3.78;;
77726;SDS011;68312;53.502;10.030;2023-04-22T02:20:38;8.88;;;4.13;;
77726;SDS011;68312;53.502;10.030;2023-04-22T02:23:03;6.10;;;4.15;;
77726;SDS011;68312;53.502;10.030;2023-04-22T02:25:29;8.50;;;4.20;;
77726;SDS011;68312;53.502;10.030;2023-04-22T02:27:55;5.57;;;3.58;;
77726;SDS011;68312;53.502;10.030;2023-04-22T02:30:21;10.75;;;4.00;;
77726;SDS011;68312;53.502;10.030;2023-04-22T02:32:47;5.60;;;3.67;;
77726;SDS011;68312;53.502;10.030;2023-04-22T02:35:14;7.82;;;4.25;;
77726;SDS011;68312;53.502;10.030;2023-04-22T02:37:41;6.82;;;3.47;;
77726;SDS011;68312;53.502;10.030;2023-04-22T02:40:06;7.90;;;4.25;;
77726;SDS011;68312;53.502;10.030;2023-04-22T02:42:32;8.45;;;3.80;;
77726;SDS011;68312;53.502;10.030;2023-04-22T02:44:59;8.35;;;4.20;;
77726;SDS011;68312;53.502;10.030;2023-04-22T02:47:24;6.20;;;4.15;;
77726;SDS011;68312;53.502;10.030;2023-04-22T02:49:50;7.65;;;4.38;;
77726;SDS011;68312;53.502;10.030;2023-04-22T02:52:15;7.40;;;4.57;;
77726;SDS011;68312;53.502;10.030;2023-04-22T02:54:41;7.60;;;4.03;;
77726;SDS011;68312;53.502;10.030;2023-04-22T02:57:07;6.53;;;3.85;;
77726;SDS011;68312;53.502;10.030;2023-04-22T02:59:33;6.32;;;3.55;;
77726;SDS011;68312;53.502;10.030;2023-04-22T03:01:59;7.43;;;4.20;;
77726;SDS011;68312;53.502;10.030;2023-04-22T03:04:25;6.88;;;4.40;;
77726;SDS011;68312;53.502;10.030;2023-04-22T03:06:50;7.88;;;4.75;;
77726;SDS011;68312;53.502;10.030;2023-04-22T03:09:16;10.40;;;4.53;;
77726;SDS011;68312;53.502;10.030;2023-04-22T03:11:43;8.27;;;4.15;;
77726;SDS011;68312;53.502;10.030;2023-04-22T03:14:08;8.82;;;4.43;;
77726;SDS011;68312;53.502;10.030;2023-04-22T03:16:34;7.93;;;4.50;;
77726;SDS011;68312;53.502;10.030;2023-04-22T03:19:00;8.35;;;4.32;;
77726;SDS011;68312;53.502;10.030;2023-04-22T03:21:26;9.50;;;4.65;;
77726;SDS011;68312;53.502;10.030;2023-04-22T03:23:54;6.38;;;4.25;;
77726;SDS011;68312;53.502;10.030;2023-04-22T03:26:20;11.30;;;4.43;;
77726;SDS011;68312;53.502;10.030;2023-04-22T03:28:45;7.63;;;4.70;;
77726;SDS011;68312;53.502;10.030;2023-04-22T03:31:12;9.15;;;4.60;;
77726;SDS011;68312;53.502;10.030;2023-04-22T03:33:38;8.75;;;4.68;;
77726;SDS011;68312;53.502;10.030;2023-04-22T03:36:10;7.80;;;4.43;;
77726;SDS011;68312;53.502;10.030;2023-04-22T03:38:36;8.60;;;4.80;;
77726;SDS011;68312;53.502;10.030;2023-04-22T03:41:02;10.50;;;4.95;;
77726;SDS011;68312;53.502;10.030;2023-04-22T03:43:27;10.35;;;5.35;;
77726;SDS011;68312;53.502;10.030;2023-04-22T03:45:54;7.05;;;4.80;;
77726;SDS011;68312;53.502;10.030;2023-04-22T03:48:19;9.07;;;4.70;;
77726;SDS011;68312;53.502;10.030;2023-04-22T03:50:45;7.13;;;4.47;;
77726;SDS011;68312;53.502;10.030;2023-04-22T03:53:10;8.32;;;5.20;;
77726;SDS011;68312;53.502;10.030;2023-04-22T03:55:36;9.35;;;4.97;;
77726;SDS011;68312;53.502;10.030;2023-04-22T03:58:01;9.20;;;4.90;;
77726;SDS011;68312;53.502;10.030;2023-04-22T04:00:31;10.02;;;5.40;;
77726;SDS011;68312;53.502;10.030;2023-04-22T04:02:56;8.02;;;4.82;;
77726;SDS011;68312;53.502;10.030;2023-04-22T04:05:23;9.43;;;4.68;;
77726;SDS011;68312;53.502;10.030;2023-04-22T04:07:50;9.07;;;4.90;;
77726;SDS011;68312;53.502;10.030;2023-04-22T04:10:15;8.82;;;5.47;;
77726;SDS011;68312;53.502;10.030;2023-04-22T04:12:41;8.02;;;4.97;;
77726;SDS011;68312;53.502;10.030;2023-04-22T04:15:07;9.30;;;5.07;;
77726;SDS011;68312;53.502;10.030;2023-04-22T04:17:33;10.82;;;4.95;;
77726;SDS011;68312;53.502;10.030;2023-04-22T04:19:58;8.88;;;5.00;;
77726;SDS011;68312;53.502;10.030;2023-04-22T04:22:24;8.15;;;5.05;;
77726;SDS011;68312;53.502;10.030;2023-04-22T04:24:49;10.10;;;4.85;;
77726;SDS011;68312;53.502;10.030;2023-04-22T04:27:17;8.80;;;5.10;;
77726;SDS011;68312;53.502;10.030;2023-04-22T04:29:43;8.32;;;4.93;;
77726;SDS011;68312;53.502;10.030;2023-04-22T04:32:10;9.32;;;5.20;;
77726;SDS011;68312;53.502;10.030;2023-04-22T04:34:35;8.57;;;4.97;;
77726;SDS011;68312;53.502;10.030;2023-04-22T04:37:04;8.05;;;4.93;;
77726;SDS011;68312;53.502;10.030;2023-04-22T04:40:30;8.48;;;5.50;;
77726;SDS011;68312;53.502;10.030;2023-04-22T04:42:58;9.23;;;5.80;;
77726;SDS011;68312;53.502;10.030;2023-04-22T04:45:26;8.02;;;4.82;;
77726;SDS011;68312;53.502;10.030;2023-04-22T04:47:52;8.90;;;5.45;;
77726;SDS011;68312;53.502;10.030;2023-04-22T04:50:18;9.57;;;5.60;;
77726;SDS011;68312;53.502;10.030;2023-04-22T04:52:46;9.60;;;6.05;;
77726;SDS011;68312;53.502;10.030;2023-04-22T04:55:15;8.07;;;5.53;;
77726;SDS011;68312;53.502;10.030;2023-04-22T04:57:43;7.75;;;5.32;;
77726;SDS011;68312;53.502;10.030;2023-04-22T05:00:10;14.55;;;5.47;;
77726;SDS011;68312;53.502;10.030;2023-04-22T05:02:40;9.77;;;5.95;;
77726;SDS011;68312;53.502;10.030;2023-04-22T05:05:06;10.25;;;6.10;;
77726;SDS011;68312;53.502;10.030;2023-04-22T05:07:33;11.30;;;5.88;;
77726;SDS011;68312;53.502;10.030;2023-04-22T05:09:59;9.85;;;6.00;;
77726;SDS011;68312;53.502;10.030;2023-04-22T05:12:25;7.70;;;5.10;;
77726;SDS011;68312;53.502;10.030;2023-04-22T05:14:51;8.93;;;5.63;;
77726;SDS011;68312;53.502;10.030;2023-04-22T05:17:17;10.57;;;5.32;;
77726;SDS011;68312;53.502;10.030;2023-04-22T05:19:44;9.48;;;5.03;;
77726;SDS011;68312;53.502;10.030;2023-04-22T05:22:10;11.43;;;5.60;;
77726;SDS011;68312;53.502;10.030;2023-04-22T05:24:36;10.38;;;5.68;;
77726;SDS011;68312;53.502;10.030;2023-04-22T05:27:02;9.02;;;5.60;;
77726;SDS011;68312;53.502;10.030;2023-04-22T05:29:27;10.18;;;5.70;;
77726;SDS011;68312;53.502;10.030;2023-04-22T05:31:53;11.10;;;5.78;;
77726;SDS011;68312;53.502;10.030;2023-04-22T05:34:19;10.10;;;6.00;;
77726;SDS011;68312;53.502;10.030;2023-04-22T05:36:44;10.98;;;5.03;;
77726;SDS011;68312;53.502;10.030;2023-04-22T05:39:10;10.32;;;6.20;;
77726;SDS011;68312;53.502;10.030;2023-04-22T05:41:36;9.75;;;5.90;;
77726;SDS011;68312;53.502;10.030;2023-04-22T05:44:02;9.50;;;6.13;;
77726;SDS011;68312;53.502;10.030;2023-04-22T05:46:28;9.15;;;5.57;;
77726;SDS011;68312;53.502;10.030;2023-04-22T05:48:53;10.25;;;5.78;;
77726;SDS011;68312;53.502;10.030;2023-04-22T05:51:20;8.77;;;5.38;;
77726;SDS011;68312;53.502;10.030;2023-04-22T05:53:47;8.95;;;5.82;;
77726;SDS011;68312;53.502;10.030;2023-04-22T05:56:14;9.38;;;6.20;;
77726;SDS011;68312;53.502;10.030;2023-04-22T05:58:40;12.30;;;6.20;;
77726;SDS011;68312;53.502;10.030;2023-04-22T06:01:06;11.57;;;6.18;;
77726;SDS011;68312;53.502;10.030;2023-04-22T06:03:31;9.95;;;5.82;;
77726;SDS011;68312;53.502;10.030;2023-04-22T06:05:57;10.93;;;6.20;;
77726;SDS011;68312;53.502;10.030;2023-04-22T06:08:24;11.13;;;6.72;;
77726;SDS011;68312;53.502;10.030;2023-04-22T06:10:51;7.65;;;5.45;;
77726;SDS011;68312;53.502;10.030;2023-04-22T06:13:16;10.65;;;5.82;;
77726;SDS011;68312;53.502;10.030;2023-04-22T06:15:42;9.07;;;6.88;;
77726;SDS011;68312;53.502;10.030;2023-04-22T06:18:07;8.40;;;6.10;;
77726;SDS011;68312;53.502;10.030;2023-04-22T06:20:34;9.30;;;5.78;;
77726;SDS011;68312;53.502;10.030;2023-04-22T06:23:00;9.95;;;6.40;;
77726;SDS011;68312;53.502;10.030;2023-04-22T06:25:29;11.57;;;6.55;;
77726;SDS011;68312;53.502;10.030;2023-04-22T06:27:55;10.48;;;6.53;;
77726;SDS011;68312;53.502;10.030;2023-04-22T06:30:21;9.25;;;5.88;;
77726;SDS011;68312;53.502;10.030;2023-04-22T06:32:46;11.20;;;6.20;;
77726;SDS011;68312;53.502;10.030;2023-04-22T06:35:12;9.68;;;6.35;;
77726;SDS011;68312;53.502;10.030;2023-04-22T06:37:37;10.25;;;6.22;;
77726;SDS011;68312;53.502;10.030;2023-04-22T06:41:41;8.80;;;5.80;;
77726;SDS011;68312;53.502;10.030;2023-04-22T06:44:07;10.57;;;6.43;;
77726;SDS011;68312;53.502;10.030;2023-04-22T06:46:32;12.52;;;6.80;;
77726;SDS011;68312;53.502;10.030;2023-04-22T06:48:58;9.05;;;6.00;;
77726;SDS011;68312;53.502;10.030;2023-04-22T06:51:23;10.13;;;6.40;;
77726;SDS011;68312;53.502;10.030;2023-04-22T06:53:49;13.25;;;7.82;;
77726;SDS011;68312;53.502;10.030;2023-04-22T06:56:14;10.23;;;7.20;;
77726;SDS011;68312;53.502;10.030;2023-04-22T06:58:40;13.30;;;6.57;;
77726;SDS011;68312;53.502;10.030;2023-04-22T07:01:05;10.77;;;6.90;;
77726;SDS011;68312;53.502;10.030;2023-04-22T07:03:31;10.40;;;6.72;;
77726;SDS011;68312;53.502;10.030;2023-04-22T07:05:56;11.88;;;7.30;;
77726;SDS011;68312;53.502;10.030;2023-04-22T07:08:22;9.68;;;6.57;;
77726;SDS011;68312;53.502;10.030;2023-04-22T07:10:47;9.68;;;6.53;;
77726;SDS011;68312;53.502;10.030;2023-04-22T07:13:13;10.38;;;6.43;;
77726;SDS011;68312;53.502;10.030;2023-04-22T07:15:38;9.27;;;5.95;;
77726;SDS011;68312;53.502;10.030;2023-04-22T07:18:04;10.07;;;5.93;;
77726;SDS011;68312;53.502;10.030;2023-04-22T07:20:29;9.70;;;6.65;;
77726;SDS011;68312;53.502;10.030;2023-04-22T07:22:55;9.60;;;6.60;;
77726;SDS011;68312;53.502;10.030;2023-04-22T07:25:20;10.38;;;6.47;;
77726;SDS011;68312;53.502;10.030;2023-04-22T07:27:46;10.23;;;6.28;;
77726;SDS011;68312;53.502;10.030;2023-04-22T07:30:12;10.90;;;6.60;;
77726;SDS011;68312;53.502;10.030;2023-04-22T07:32:38;8.70;;;6.25;;
77726;SDS011;68312;53.502;10.030;2023-04-22T07:35:03;11.75;;;6.78;;
77726;SDS011;68312;53.502;10.030;2023-04-22T07:37:30;8.95;;;6.25;;
77726;SDS011;68312;53.502;10.030;2023-04-22T07:39:55;10.63;;;6.38;;
77726;SDS011;68312;53.502;10.030;2023-04-22T07:42:21;9.57;;;6.43;;
77726;SDS011;68312;53.502;10.030;2023-04-22T07:44:46;10.18;;;6.53;;
77726;SDS011;68312;53.502;10.030;2023-04-22T07:47:12;10.18;;;6.25;;
77726;SDS011;68312;53.502;10.030;2023-04-22T07:49:37;10.75;;;6.43;;
77726;SDS011;68312;53.502;10.030;2023-04-22T07:52:03;10.38;;;6.60;;
77726;SDS011;68312;53.502;10.030;2023-04-22T07:54:28;8.73;;;6.30;;
77726;SDS011;68312;53.502;10.030;2023-04-22T07:56:54;10.70;;;6.38;;
77726;SDS011;68312;53.502;10.030;2023-04-22T07:59:19;9.15;;;6.38;;
77726;SDS011;68312;53.502;10.030;2023-04-22T08:01:45;9.93;;;6.47;;
77726;SDS011;68312;53.502;10.030;2023-04-22T08:04:10;10.68;;;6.55;;
77726;SDS011;68312;53.502;10.030;2023-04-22T08:06:36;10.57;;;6.78;;
77726;SDS011;68312;53.502;10.030;2023-04-22T08:09:02;11.65;;;6.05;;
77726;SDS011;68312;53.502;10.030;2023-04-22T08:11:27;9.60;;;5.93;;
77726;SDS011;68312;53.502;10.030;2023-04-22T08:13:53;10.80;;;6.20;;
77726;SDS011;68312;53.502;10.030;2023-04-22T08:16:18;10.07;;;6.32;;
77726;SDS011;68312;53.502;10.030;2023-04-22T08:18:44;9.02;;;6.53;;
77726;SDS011;68312;53.502;10.030;2023-04-22T08:21:10;8.68;;;6.28;;
77726;SDS011;68312;53.502;10.030;2023-04-22T08:23:35;9.02;;;6.57;;
77726;SDS011;68312;53.502;10.030;2023-04-22T08:26:01;12.95;;;7.15;;
77726;SDS011;68312;53.502;10.030;2023-04-22T08:28:28;10.13;;;7.00;;
77726;SDS011;68312;53.502;10.030;2023-04-22T08:30:53;8.63;;;6.47;;
77726;SDS011;68312;53.502;10.030;2023-04-22T08:33:19;9.38;;;6.68;;
77726;SDS011;68312;53.502;10.030;2023-04-22T08:35:44;9.52;;;6.68;;
77726;SDS011;68312;53.502;10.030;2023-04-22T08:38:10;8.27;;;5.85;;
77726;SDS011;68312;53.502;10.030;2023-04-22T08:40:37;9.48;;;5.78;;
77726;SDS011;68312;53.502;10.030;2023-04-22T08:43:05;9.93;;;6.55;;
77726;SDS011;68312;53.502;10.030;2023-04-22T08:45:31;9.18;;;5.65;;
77726;SDS011;68312;53.502;10.030;2023-04-22T08:47:57;7.95;;;5.80;;
77726;SDS011;68312;53.502;10.030;2023-04-22T08:50:24;8.35;;;6.25;;
77726;SDS011;68312;53.502;10.030;2023-04-22T08:52:50;11.23;;;6.05;;
77726;SDS011;68312;53.502;10.030;2023-04-22T08:55:16;11.23;;;6.22;;
77726;SDS011;68312;53.502;10.030;2023-04-22T08:57:43;7.13;;;5.30;;
77726;SDS011;68312;53.502;10.030;2023-04-22T09:00:10;10.88;;;5.80;;
77726;SDS011;68312;53.502;10.030;2023-04-22T09:02:36;10.35;;;6.00;;
77726;SDS011;68312;53.502;10.030;2023-04-22T09:05:08;7.60;;;5.20;;
77726;SDS011;68312;53.502;10.030;2023-04-22T09:07:37;8.13;;;5.70;;
77726;SDS011;68312;53.502;10.030;2023-04-22T09:10:03;9.45;;;5.30;;
77726;SDS011;68312;53.502;10.030;2023-04-22T09:12:30;8.20;;;5.15;;
77726;SDS011;68312;53.502;10.030;2023-04-22T09:14:55;11.38;;;5.90;;
77726;SDS011;68312;53.502;10.030;2023-04-22T09:17:31;11.70;;;5.25;;
77726;SDS011;68312;53.502;10.030;2023-04-22T09:20:00;6.65;;;5.07;;
77726;SDS011;68312;53.502;10.030;2023-04-22T09:22:38;7.70;;;5.25;;
77726;SDS011;68312;53.502;10.030;2023-04-22T09:25:17;9.55;;;5.00;;
77726;SDS011;68312;53.502;10.030;2023-04-22T09:27:49;7.95;;;4.32;;
77726;SDS011;68312;53.502;10.030;2023-04-22T09:30:28;8.00;;;4.55;;
77726;SDS011;68312;53.502;10.030;2023-04-22T09:33:01;9.73;;;4.97;;
77726;SDS011;68312;53.502;10.030;2023-04-22T09:35:30;11.20;;;4.75;;
77726;SDS011;68312;53.502;10.030;2023-04-22T09:38:01;6.28;;;4.03;;
77726;SDS011;68312;53.502;10.030;2023-04-22T09:40:31;5.35;;;4.38;;
77726;SDS011;68312;53.502;10.030;2023-04-22T09:42:59;6.05;;;4.32;;
77726;SDS011;68312;53.502;10.030;2023-04-22T09:45:30;6.50;;;4.57;;
77726;SDS011;68312;53.502;10.030;2023-04-22T09:48:08;6.78;;;3.88;;
77726;SDS011;68312;53.502;10.030;2023-04-22T09:50:45;6.88;;;4.50;;
77726;SDS011;68312;53.502;10.030;2023-04-22T09:53:24;5.30;;;4.20;;
77726;SDS011;68312;53.502;10.030;2023-04-22T09:55:52;7.00;;;4.20;;
77726;SDS011;68312;53.502;10.030;2023-04-22T09:58:19;7.45;;;4.40;;
77726;SDS011;68312;53.502;10.030;2023-04-22T10:00:50;4.78;;;4.22;;
77726;SDS011;68312;53.502;10.030;2023-04-22T10:03:20;5.85;;;4.00;;
77726;SDS011;68312;53.502;10.030;2023-04-22T10:05:46;5.85;;;3.85;;
77726;SDS011;68312;53.502;10.030;2023-04-22T10:08:12;6.97;;;4.18;;
77726;SDS011;68312;53.502;10.030;2023-04-22T10:10:40;5.38;;;3.70;;
77726;SDS011;68312;53.502;10.030;2023-04-22T10:13:07;14.23;;;4.28;;
77726;SDS011;68312;53.502;10.030;2023-04-22T10:15:37;5.75;;;3.95;;
77726;SDS011;68312;53.502;10.030;2023-04-22T10:18:15;7.63;;;3.72;;
77726;SDS011;68312;53.502;10.030;2023-04-22T10:20:49;6.90;;;4.05;;
77726;SDS011;68312;53.502;10.030;2023-04-22T10:23:18;5.53;;;3.53;;
77726;SDS011;68312;53.502;10.030;2023-04-22T10:25:51;7.10;;;4.07;;
77726;SDS011;68312;53.502;10.030;2023-04-22T10:28:20;6.13;;;3.83;;
77726;SDS011;68312;53.502;10.030;2023-04-22T10:30:48;5.00;;;3.70;;
77726;SDS011;68312;53.502;10.030;2023-04-22T10:41:06;7.25;;;3.90;;
77726;SDS011;68312;53.502;10.030;2023-04-22T10:43:46;9.15;;;4.18;;
77726;SDS011;68312;53.502;10.030;2023-04-22T10:49:18;4.35;;;3.33;;
77726;SDS011;68312;53.502;10.030;2023-04-22T10:51:48;5.88;;;3.53;;
77726;SDS011;68312;53.502;10.030;2023-04-22T10:57:00;5.13;;;3.45;;
77726;SDS011;68312;53.502;10.030;2023-04-22T10:59:32;7.40;;;3.55;;
77726;SDS011;68312;53.502;10.030;2023-04-22T11:02:10;4.97;;;2.85;;
77726;SDS011;68312;53.502;10.030;2023-04-22T11:04:39;4.28;;;3.22;;
77726;SDS011;68312;53.502;10.030;2023-04-22T11:09:43;6.43;;;3.53;;
77726;SDS011;68312;53.502;10.030;2023-04-22T11:15:08;4.72;;;3.03;;
77726;SDS011;68312;53.502;10.030;2023-04-22T11:17:46;5.10;;;3.55;;
77726;SDS011;68312;53.502;10.030;2023-04-22T11:20:15;5.60;;;3.60;;
77726;SDS011;68312;53.502;10.030;2023-04-22T11:22:52;6.22;;;3.38;;
77726;SDS011;68312;53.502;10.030;2023-04-22T11:25:21;7.45;;;3.20;;
77726;SDS011;68312;53.502;10.030;2023-04-22T11:27:49;7.57;;;3.70;;
77726;SDS011;68312;53.502;10.030;2023-04-22T11:30:16;6.70;;;3.25;;
77726;SDS011;68312;53.502;10.030;2023-04-22T11:32:46;5.78;;;3.00;;
77726;SDS011;68312;53.502;10.030;2023-04-22T11:35:23;7.32;;;3.38;;
77726;SDS011;68312;53.502;10.030;2023-04-22T11:38:02;4.97;;;3.20;;
77726;SDS011;68312;53.502;10.030;2023-04-22T11:43:06;4.95;;;3.30;;
77726;SDS011;68312;53.502;10.030;2023-04-22T11:45:34;6.40;;;3.10;;
77726;SDS011;68312;53.502;10.030;2023-04-22T11:48:04;4.68;;;3.28;;
77726;SDS011;68312;53.502;10.030;2023-04-22T11:53:10;6.82;;;3.33;;
77726;SDS011;68312;53.502;10.030;2023-04-22T11:55:48;4.57;;;3.20;;
77726;SDS011;68312;53.502;10.030;2023-04-22T11:58:17;7.30;;;3.15;;
77726;SDS011;68312;53.502;10.030;2023-04-22T12:00:50;4.00;;;3.17;;
77726;SDS011;68312;53.502;10.030;2023-04-22T12:03:19;6.43;;;3.10;;
77726;SDS011;68312;53.502;10.030;2023-04-22T12:08:22;5.72;;;3.60;;
77726;SDS011;68312;53.502;10.030;2023-04-22T12:10:56;4.82;;;3.33;;
77726;SDS011;68312;53.502;10.030;2023-04-22T12:13:30;4.38;;;3.08;;
77726;SDS011;68312;53.502;10.030;2023-04-22T12:16:09;7.18;;;3.40;;
77726;SDS011;68312;53.502;10.030;2023-04-22T12:18:40;5.40;;;3.45;;
77726;SDS011;68312;53.502;10.030;2023-04-22T12:21:21;4.60;;;3.25;;
77726;SDS011;68312;53.502;10.030;2023-04-22T12:26:19;4.75;;;3.63;;
77726;SDS011;68312;53.502;10.030;2023-04-22T12:28:48;6.30;;;3.17;;
77726;SDS011;68312;53.502;10.030;2023-04-22T12:31:14;6.22;;;3.08;;
77726;SDS011;68312;53.502;10.030;2023-04-22T12:33:41;3.78;;;2.70;;
77726;SDS011;68312;53.502;10.030;2023-04-22T12:36:08;5.53;;;2.90;;
77726;SDS011;68312;53.502;10.030;2023-04-22T12:38:34;4.68;;;3.00;;
77726;SDS011;68312;53.502;10.030;2023-04-22T12:41:02;5.40;;;3.40;;
77726;SDS011;68312;53.502;10.030;2023-04-22T12:43:30;5.88;;;3.40;;
77726;SDS011;68312;53.502;10.030;2023-04-22T12:45:57;5.57;;;3.25;;
77726;SDS011;68312;53.502;10.030;2023-04-22T12:48:23;5.07;;;3.47;;
77726;SDS011;68312;53.502;10.030;2023-04-22T12:50:48;5.50;;;3.60;;
77726;SDS011;68312;53.502;10.030;2023-04-22T12:53:14;4.05;;;2.92;;
77726;SDS011;68312;53.502;10.030;2023-04-22T12:55:40;4.65;;;3.10;;
77726;SDS011;68312;53.502;10.030;2023-04-22T12:58:05;5.10;;;3.35;;
77726;SDS011;68312;53.502;10.030;2023-04-22T13:00:31;5.50;;;2.80;;
77726;SDS011;68312;53.502;10.030;2023-04-22T13:02:56;4.43;;;2.90;;
77726;SDS011;68312;53.502;10.030;2023-04-22T13:05:22;4.78;;;2.55;;
77726;SDS011;68312;53.502;10.030;2023-04-22T13:07:48;5.20;;;2.78;;
77726;SDS011;68312;53.502;10.030;2023-04-22T13:10:14;6.20;;;2.60;;
77726;SDS011;68312;53.502;10.030;2023-04-22T13:12:41;6.82;;;2.60;;
77726;SDS011;68312;53.502;10.030;2023-04-22T13:15:08;4.05;;;2.33;;
77726;SDS011;68312;53.502;10.030;2023-04-22T13:17:35;3.83;;;2.60;;
77726;SDS011;68312;53.502;10.030;2023-04-22T13:20:03;5.30;;;2.80;;
77726;SDS011;68312;53.502;10.030;2023-04-22T13:22:30;3.67;;;2.58;;
77726;SDS011;68312;53.502;10.030;2023-04-22T13:24:57;5.30;;;2.80;;
77726;SDS011;68312;53.502;10.030;2023-04-22T13:27:24;4.25;;;2.88;;
77726;SDS011;68312;53.502;10.030;2023-04-22T13:29:50;5.25;;;2.92;;
77726;SDS011;68312;53.502;10.030;2023-04-22T13:32:15;4.25;;;2.30;;
77726;SDS011;68312;53.502;10.030;2023-04-22T13:34:41;5.53;;;3.10;;
77726;SDS011;68312;53.502;10.030;2023-04-22T13:37:06;4.85;;;2.83;;
77726;SDS011;68312;53.502;10.030;2023-04-22T13:39:32;3.35;;;2.72;;
77726;SDS011;68312;53.502;10.030;2023-04-22T13:41:58;5.35;;;2.78;;
77726;SDS011;68312;53.502;10.030;2023-04-22T13:44:24;4.03;;;3.10;;
77726;SDS011;68312;53.502;10.030;2023-04-22T13:46:49;7.18;;;2.83;;
77726;SDS011;68312;53.502;10.030;2023-04-22T13:49:15;3.35;;;2.58;;
77726;SDS011;68312;53.502;10.030;2023-04-22T13:51:41;4.88;;;2.67;;
77726;SDS011;68312;53.502;10.030;2023-04-22T13:54:06;5.25;;;3.35;;
77726;SDS011;68312;53.502;10.030;2023-04-22T13:56:32;4.63;;;3.05;;
77726;SDS011;68312;53.502;10.030;2023-04-22T13:58:58;5.90;;;2.88;;
77726;SDS011;68312;53.502;10.030;2023-04-22T14:01:24;4.55;;;2.80;;
77726;SDS011;68312;53.502;10.030;2023-04-22T14:03:50;5.18;;;2.88;;
77726;SDS011;68312;53.502;10.030;2023-04-22T14:06:18;5.30;;;2.60;;
77726;SDS011;68312;53.502;10.030;2023-04-22T14:08:44;10.02;;;2.88;;
77726;SDS011;68312;53.502;10.030;2023-04-22T14:11:10;5.30;;;2.92;;
77726;SDS011;68312;53.502;10.030;2023-04-22T14:13:37;7.18;;;3.15;;
77726;SDS011;68312;53.502;10.030;2023-04-22T14:16:03;4.88;;;2.90;;
77726;SDS011;68312;53.502;10.030;2023-04-22T14:18:30;4.10;;;2.55;;
77726;SDS011;68312;53.502;10.030;2023-04-22T14:20:55;5.72;;;3.05;;
77726;SDS011;68312;53.502;10.030;2023-04-22T14:23:21;3.38;;;2.60;;
77726;SDS011;68312;53.502;10.030;2023-04-22T14:25:46;4.53;;;2.88;;
77726;SDS011;68312;53.502;10.030;2023-04-22T14:28:13;5.60;;;2.80;;
77726;SDS011;68312;53.502;10.030;2023-04-22T14:30:40;5.30;;;3.20;;
77726;SDS011;68312;53.502;10.030;2023-04-22T14:33:07;4.97;;;2.50;;
77726;SDS011;68312;53.502;10.030;2023-04-22T14:35:33;4.80;;;2.78;;
77726;SDS011;68312;53.502;10.030;2023-04-22T14:38:01;4.13;;;2.45;;
77726;SDS011;68312;53.502;10.030;2023-04-22T14:40:32;3.50;;;2.42;;
77726;SDS011;68312;53.502;10.030;2023-04-22T14:42:58;4.78;;;2.70;;
77726;SDS011;68312;53.502;10.030;2023-04-22T14:45:28;5.00;;;2.78;;
77726;SDS011;68312;53.502;10.030;2023-04-22T14:47:58;4.47;;;3.00;;
77726;SDS011;68312;53.502;10.030;2023-04-22T14:50:25;4.00;;;2.45;;
77726;SDS011;68312;53.502;10.030;2023-04-22T14:52:50;3.45;;;2.42;;
77726;SDS011;68312;53.502;10.030;2023-04-22T14:55:17;5.40;;;3.10;;
77726;SDS011;68312;53.502;10.030;2023-04-22T14:57:44;5.95;;;2.33;;
77726;SDS011;68312;53.502;10.030;2023-04-22T15:00:10;6.50;;;2.50;;
77726;SDS011;68312;53.502;10.030;2023-04-22T15:02:36;3.92;;;2.97;;
77726;SDS011;68312;53.502;10.030;2023-04-22T15:05:02;4.43;;;2.97;;
77726;SDS011;68312;53.502;10.030;2023-04-22T15:07:28;4.95;;;2.70;;